Terminal Aerodrome Forecast
Issued by NWS Billings, MT

Home | Current Version | Previous Version | Text Only | Print | Product List | Glossary Off
Versions: 1 2 3 4 5 6 7 8 9 10 11 12 13 14 15 16 17 18 19 20 21 22 23 24 25 26 27 28

819
FTUS45 KBYZ 162336
TAFMLS
TAF
KMLS 162336Z 1700/1724 33004KT P6SM SCT027 SCT035 OVC045
     FM170200 33007KT P6SM FEW020 OVC035
     FM170600 21006KT P6SM VCFG FEW005 SCT070
     FM171100 17005KT 2SM BR SCT003
     FM171600 17008KT P6SM FEW050
     FM171900 22008KT P6SM FEW100=

USA.gov is the U.S. government's official web portal to all federal, state and local government web resources and services.